Time;durP1;ratioP1;P1;durP2;ratioP2;P2;SDS_P1;SDS_P2;PMS_P1;PMS_P2;Temp;Humidity;BMP_temperature;BMP_pressure;BME280_temperature;BME280_humidity;BME280_pressure;Samples;Min_cycle;Max_cycle;Signal;HPM_P1;HPM_P2
2024/05/05 00:00:29;;;;;;;16.70;12.13;;;13.90;99.90;;;;;;5448729;26;20344;-81
2024/05/05 00:02:55;;;;;;;15.30;12.77;;;13.90;99.90;;;;;;5445928;26;20313;-80
2024/05/05 00:05:21;;;;;;;15.87;12.57;;;13.90;99.90;;;;;;5443312;26;20255;-81
2024/05/05 00:07:46;;;;;;;15.53;12.40;;;13.90;99.90;;;;;;5445970;26;20243;-79
2024/05/05 00:10:12;;;;;;;14.70;13.03;;;13.90;99.90;;;;;;5446055;26;20271;-81
2024/05/05 00:12:37;;;;;;;21.40;14.63;;;13.90;99.90;;;;;;5411127;26;20282;-80
2024/05/05 00:15:04;;;;;;;18.23;13.93;;;14.00;99.90;;;;;;5416699;26;20808;-82
2024/05/05 00:17:30;;;;;;;16.20;14.33;;;14.00;99.90;;;;;;5447576;26;20361;-81
2024/05/05 00:19:56;;;;;;;15.47;13.87;;;14.10;99.90;;;;;;5410885;26;20256;-82
2024/05/05 00:22:23;;;;;;;18.30;14.37;;;14.10;99.90;;;;;;5447379;26;20234;-81
2024/05/05 00:24:48;;;;;;;17.10;14.23;;;14.10;99.90;;;;;;5408449;26;20287;-80
2024/05/05 00:27:14;;;;;;;18.17;14.33;;;14.00;99.90;;;;;;5448007;26;20569;-81
2024/05/05 00:29:40;;;;;;;18.63;16.07;;;14.00;99.90;;;;;;5412569;26;20248;-80
2024/05/05 00:32:05;;;;;;;18.77;15.43;;;14.10;99.90;;;;;;5446976;26;20238;-81
2024/05/05 00:34:31;;;;;;;18.60;15.10;;;14.10;99.90;;;;;;5411847;26;20274;-81
2024/05/05 00:36:56;;;;;;;18.80;15.77;;;14.10;99.90;;;;;;5438292;26;20289;-81
2024/05/05 00:39:23;;;;;;;20.10;15.37;;;14.10;99.90;;;;;;5429888;26;20248;-82
2024/05/05 00:41:48;;;;;;;20.20;15.93;;;14.00;99.90;;;;;;5448241;26;20247;-81
2024/05/05 00:44:14;;;;;;;21.23;16.93;;;14.00;99.90;;;;;;5443482;26;20859;-81
2024/05/05 00:46:40;;;;;;;25.13;17.90;;;14.00;99.90;;;;;;5446232;26;20255;-81
2024/05/05 00:49:06;;;;;;;24.13;18.20;;;14.00;99.90;;;;;;5410833;26;20252;-81
2024/05/05 00:51:32;;;;;;;25.87;18.20;;;14.00;99.90;;;;;;5447608;26;20281;-81
2024/05/05 00:53:58;;;;;;;23.27;18.83;;;14.00;99.90;;;;;;5446164;26;20290;-81
2024/05/05 00:56:24;;;;;;;23.03;19.17;;;13.90;99.90;;;;;;5410162;26;20247;-79
2024/05/05 00:58:50;;;;;;;24.67;20.20;;;13.90;99.90;;;;;;5410143;26;20247;-80
2024/05/05 01:01:16;;;;;;;25.90;20.57;;;13.90;99.90;;;;;;5446012;26;20450;-80
2024/05/05 01:03:42;;;;;;;26.03;19.70;;;14.00;99.90;;;;;;5410616;26;20290;-81
2024/05/05 01:06:08;;;;;;;27.20;21.53;;;13.90;99.90;;;;;;5443116;26;20247;-81
2024/05/05 01:08:33;;;;;;;27.93;21.97;;;14.00;99.90;;;;;;5447035;26;20285;-80
2024/05/05 01:10:59;;;;;;;28.93;22.53;;;14.00;99.90;;;;;;5445880;26;20289;-81
2024/05/05 01:13:24;;;;;;;30.27;22.30;;;13.90;99.90;;;;;;5444588;26;20238;-81
2024/05/05 01:15:50;;;;;;;28.83;21.00;;;13.90;99.90;;;;;;5444650;26;20288;-80
2024/05/05 01:18:15;;;;;;;28.10;20.77;;;13.80;99.90;;;;;;5411185;26;20236;-81
2024/05/05 01:20:41;;;;;;;27.43;20.83;;;13.80;99.90;;;;;;5409263;26;20792;-81
2024/05/05 01:23:07;;;;;;;29.07;20.60;;;13.80;99.90;;;;;;5441998;26;20250;-81
2024/05/05 01:25:32;;;;;;;30.50;21.83;;;13.80;99.90;;;;;;5445921;26;20234;-81
2024/05/05 01:27:58;;;;;;;33.13;21.73;;;13.80;99.90;;;;;;5445660;26;20249;-81
2024/05/05 01:30:23;;;;;;;26.80;20.23;;;13.80;99.90;;;;;;5444212;26;20242;-81
2024/05/05 01:32:49;;;;;;;27.80;20.57;;;13.80;99.90;;;;;;5446808;26;20297;-81
2024/05/05 01:35:14;;;;;;;28.97;20.77;;;13.80;99.90;;;;;;5445927;26;20765;-81
2024/05/05 01:37:40;;;;;;;28.80;20.20;;;13.80;99.90;;;;;;5445223;26;20246;-80
2024/05/05 01:40:06;;;;;;;23.20;18.00;;;13.90;99.90;;;;;;5409265;26;20277;-80
2024/05/05 01:42:32;;;;;;;28.23;19.27;;;13.80;99.90;;;;;;5443867;26;20247;-80
2024/05/05 01:44:57;;;;;;;22.50;17.43;;;13.70;99.90;;;;;;5405224;26;20281;-81
2024/05/05 01:47:23;;;;;;;25.33;17.97;;;13.70;99.90;;;;;;5443710;26;20345;-80
2024/05/05 01:49:48;;;;;;;25.80;17.67;;;13.60;99.90;;;;;;5437291;26;20687;-79
2024/05/05 01:52:14;;;;;;;21.20;16.87;;;13.60;99.90;;;;;;5445738;26;20710;-80
2024/05/05 01:54:39;;;;;;;25.03;16.80;;;13.60;99.90;;;;;;5442530;26;20742;-82
2024/05/05 01:57:05;;;;;;;23.27;16.80;;;13.60;99.90;;;;;;5409198;26;20646;-81
2024/05/05 01:59:30;;;;;;;21.80;14.40;;;13.60;99.90;;;;;;5409002;26;20608;-80
2024/05/05 02:01:56;;;;;;;20.60;14.53;;;13.70;99.90;;;;;;5445139;26;20301;-82
2024/05/05 02:04:22;;;;;;;19.70;13.90;;;13.70;99.90;;;;;;5445881;26;20235;-81
2024/05/05 02:06:47;;;;;;;17.83;13.87;;;13.60;99.90;;;;;;5444221;26;20364;-80
2024/05/05 02:09:13;;;;;;;17.00;13.00;;;13.60;99.90;;;;;;5429674;26;20809;-81
2024/05/05 02:11:38;;;;;;;21.87;13.37;;;13.60;99.90;;;;;;5447888;26;20354;-81
2024/05/05 02:14:04;;;;;;;15.00;12.03;;;13.60;99.90;;;;;;5431892;26;20238;-81
2024/05/05 02:16:29;;;;;;;16.90;11.63;;;13.70;99.90;;;;;;5408906;26;20234;-79
2024/05/05 02:18:55;;;;;;;14.77;11.23;;;13.80;99.90;;;;;;5444354;26;20761;-81
2024/05/05 02:21:20;;;;;;;13.67;10.30;;;13.60;99.90;;;;;;5444495;26;20301;-81
2024/05/05 02:23:46;;;;;;;14.87;10.47;;;13.60;99.90;;;;;;5441175;26;20380;-81
2024/05/05 02:26:11;;;;;;;14.93;10.63;;;13.70;99.90;;;;;;5443840;26;20288;-81
2024/05/05 02:28:37;;;;;;;10.77;9.03;;;13.60;99.90;;;;;;5441394;26;20252;-81
2024/05/05 02:31:03;;;;;;;12.23;9.43;;;13.70;99.90;;;;;;5413778;26;20232;-81
2024/05/05 02:33:29;;;;;;;11.93;9.70;;;13.60;99.90;;;;;;5412084;26;20601;-82
2024/05/05 02:35:54;;;;;;;10.27;8.57;;;13.60;99.90;;;;;;5447790;26;20293;-81
2024/05/05 02:38:20;;;;;;;9.60;8.50;;;13.60;99.90;;;;;;5449682;26;20284;-81
2024/05/05 02:40:48;;;;;;;9.47;7.77;;;13.50;99.90;;;;;;5447001;26;20263;-81
2024/05/05 02:43:13;;;;;;;13.23;8.17;;;13.40;99.90;;;;;;5413378;26;20660;-81
2024/05/05 02:45:39;;;;;;;10.90;8.27;;;13.40;99.90;;;;;;5445413;26;20224;-80
2024/05/05 02:48:06;;;;;;;9.83;8.30;;;13.50;99.90;;;;;;5448504;26;20243;-79
2024/05/05 02:50:32;;;;;;;9.50;8.30;;;13.40;99.90;;;;;;5447560;26;20268;-80
2024/05/05 02:52:57;;;;;;;9.67;7.70;;;13.40;99.90;;;;;;5412986;26;20243;-80
2024/05/05 02:55:23;;;;;;;12.13;7.93;;;13.40;99.90;;;;;;5410955;26;20254;-81
2024/05/05 02:57:48;;;;;;;8.63;7.10;;;13.40;99.90;;;;;;5446847;26;20299;-81
2024/05/05 03:00:17;;;;;;;9.10;6.90;;;13.30;99.90;;;;;;5449528;26;20324;-79
2024/05/05 03:02:43;;;;;;;7.10;6.40;;;13.30;99.90;;;;;;5447972;26;20413;-81
2024/05/05 03:05:08;;;;;;;10.27;6.60;;;13.30;99.90;;;;;;5447233;26;20266;-81
2024/05/05 03:07:34;;;;;;;8.97;6.30;;;13.30;99.90;;;;;;5412667;26;20316;-79
2024/05/05 03:10:00;;;;;;;7.33;6.63;;;13.30;99.90;;;;;;5446335;26;20333;-80
2024/05/05 03:12:26;;;;;;;11.17;7.20;;;13.30;99.90;;;;;;5447411;26;20279;-80
2024/05/05 03:14:52;;;;;;;9.30;6.23;;;13.30;99.90;;;;;;5447658;26;20696;-80
2024/05/05 03:17:17;;;;;;;7.50;6.67;;;13.30;99.90;;;;;;5445414;26;20245;-80
2024/05/05 03:19:43;;;;;;;8.53;6.73;;;13.30;99.90;;;;;;5447771;26;20242;-80
2024/05/05 03:22:09;;;;;;;6.73;6.13;;;13.20;99.90;;;;;;5445129;26;20766;-80
2024/05/05 03:24:39;;;;;;;7.13;6.43;;;13.20;99.90;;;;;;5443013;26;20236;-79
2024/05/05 03:27:07;;;;;;;9.80;6.50;;;13.10;99.90;;;;;;5409378;26;20732;-79
2024/05/05 03:29:33;;;;;;;6.80;6.10;;;13.10;99.90;;;;;;5445750;26;20298;-79
2024/05/05 03:31:59;;;;;;;8.10;7.20;;;13.10;99.90;;;;;;5410060;26;20290;-81
2024/05/05 03:34:24;;;;;;;7.90;7.10;;;13.20;99.90;;;;;;5409563;26;20573;-79
2024/05/05 03:36:50;;;;;;;9.47;7.60;;;13.00;99.90;;;;;;5444373;26;20717;-79
2024/05/05 03:39:15;;;;;;;8.00;7.20;;;13.00;99.90;;;;;;5410107;26;20243;-81
2024/05/05 03:41:41;;;;;;;8.20;7.40;;;13.00;99.90;;;;;;5448287;26;20288;-81
2024/05/05 03:44:07;;;;;;;8.00;7.23;;;13.00;99.90;;;;;;5422448;26;20275;-81
2024/05/05 03:46:32;;;;;;;9.13;7.80;;;13.00;99.90;;;;;;5447493;26;20284;-80
2024/05/05 03:48:58;;;;;;;8.53;7.37;;;12.90;99.90;;;;;;5410321;26;20256;-81
2024/05/05 03:51:24;;;;;;;9.50;7.93;;;12.90;99.90;;;;;;5409545;26;20264;-80
2024/05/05 03:53:49;;;;;;;9.27;8.10;;;13.00;99.90;;;;;;5431623;26;20581;-80
2024/05/05 03:56:15;;;;;;;9.40;7.53;;;13.00;99.90;;;;;;5442224;26;20337;-80
2024/05/05 03:58:40;;;;;;;9.10;8.20;;;13.00;99.90;;;;;;5420981;26;20246;-80
2024/05/05 04:01:06;;;;;;;10.23;7.93;;;13.00;99.90;;;;;;5448637;26;20242;-80
2024/05/05 04:03:31;;;;;;;9.17;8.17;;;13.10;99.90;;;;;;5441152;26;20355;-80
2024/05/05 04:05:57;;;;;;;8.97;8.07;;;13.00;99.90;;;;;;5411474;26;20234;-80
2024/05/05 04:08:23;;;;;;;10.50;8.57;;;13.00;99.90;;;;;;5409550;26;20253;-81
2024/05/05 04:10:49;;;;;;;9.77;8.77;;;13.00;99.90;;;;;;5443858;26;20906;-80
2024/05/05 04:13:14;;;;;;;15.30;9.87;;;13.00;99.90;;;;;;5445478;26;20573;-80
2024/05/05 04:15:40;;;;;;;11.50;9.43;;;13.10;99.90;;;;;;5447221;26;20337;-81
2024/05/05 04:18:05;;;;;;;10.37;9.37;;;13.00;99.90;;;;;;5445181;26;20275;-80
2024/05/05 04:20:31;;;;;;;11.00;9.63;;;13.10;99.90;;;;;;5444393;26;20630;-80
2024/05/05 04:22:56;;;;;;;10.03;8.97;;;13.10;99.90;;;;;;5445011;26;20287;-80
2024/05/05 04:25:22;;;;;;;10.50;9.00;;;13.10;99.90;;;;;;5406709;26;20247;-80
2024/05/05 04:27:47;;;;;;;10.07;9.07;;;13.10;99.90;;;;;;5444056;26;20591;-81
2024/05/05 04:30:13;;;;;;;9.37;8.33;;;13.00;99.90;;;;;;5442127;26;20258;-80
2024/05/05 04:32:38;;;;;;;10.30;8.27;;;13.00;99.90;;;;;;5444759;26;20297;-81
2024/05/05 04:35:04;;;;;;;9.10;8.20;;;13.00;99.90;;;;;;5446522;26;20729;-82
2024/05/05 04:37:30;;;;;;;9.23;8.20;;;12.90;99.90;;;;;;5445037;26;20283;-82
2024/05/05 04:39:55;;;;;;;8.07;7.27;;;12.90;99.90;;;;;;5410145;26;20251;-81
2024/05/05 04:42:21;;;;;;;9.77;8.37;;;12.90;99.90;;;;;;5445296;26;20532;-80
2024/05/05 04:44:46;;;;;;;8.73;7.83;;;12.90;99.90;;;;;;5405420;26;20280;-81
2024/05/05 04:47:12;;;;;;;9.63;8.63;;;12.80;99.90;;;;;;5443169;26;20250;-81
2024/05/05 04:49:37;;;;;;;10.27;8.63;;;12.90;99.90;;;;;;5409032;26;20591;-81
2024/05/05 04:52:03;;;;;;;10.60;9.40;;;13.00;99.90;;;;;;5443531;26;20248;-80
2024/05/05 04:54:29;;;;;;;10.17;9.17;;;12.90;99.90;;;;;;5405870;26;20696;-81
2024/05/05 04:56:54;;;;;;;11.33;8.80;;;12.90;99.90;;;;;;5410836;26;20241;-81
2024/05/05 04:59:20;;;;;;;8.73;7.83;;;12.80;99.90;;;;;;5442903;26;20247;-81
2024/05/05 05:01:45;;;;;;;8.73;7.83;;;12.90;99.90;;;;;;5445853;26;20240;-81
2024/05/05 05:04:11;;;;;;;8.17;7.20;;;12.90;99.90;;;;;;5445680;26;20279;-81
2024/05/05 05:06:36;;;;;;;9.83;7.40;;;13.00;99.90;;;;;;5444550;26;20843;-81
2024/05/05 05:09:04;;;;;;;8.10;6.50;;;12.90;99.90;;;;;;5432289;26;20356;-81
2024/05/05 05:11:33;;;;;;;7.80;6.30;;;12.90;99.90;;;;;;5408427;26;20776;-82
2024/05/05 05:14:00;;;;;;;6.90;6.30;;;13.00;99.90;;;;;;5410781;26;20234;-80
2024/05/05 05:16:25;;;;;;;6.73;6.03;;;12.90;99.90;;;;;;5410917;26;20235;-81
2024/05/05 05:18:51;;;;;;;7.20;6.47;;;13.00;99.90;;;;;;5407936;26;20339;-79
2024/05/05 05:21:16;;;;;;;7.00;6.30;;;13.00;99.90;;;;;;5447199;26;20281;-81
2024/05/05 05:23:42;;;;;;;7.03;6.13;;;13.00;99.90;;;;;;5417915;26;20332;-81
2024/05/05 05:26:07;;;;;;;7.00;6.00;;;12.90;99.90;;;;;;5442795;26;20236;-81
2024/05/05 05:28:33;;;;;;;7.73;7.00;;;13.00;99.90;;;;;;5444227;26;20288;-81
2024/05/05 05:30:58;;;;;;;7.57;6.73;;;12.90;99.90;;;;;;5445971;26;20279;-83
2024/05/05 05:33:24;;;;;;;8.50;7.70;;;12.90;99.90;;;;;;5444073;26;20306;-82
2024/05/05 05:35:49;;;;;;;8.83;7.53;;;12.90;99.90;;;;;;5409521;26;20266;-80
2024/05/05 05:38:15;;;;;;;9.27;7.33;;;12.90;99.90;;;;;;5444691;26;20241;-82
2024/05/05 05:40:41;;;;;;;8.90;8.00;;;12.90;99.90;;;;;;5445640;26;20244;-80
2024/05/05 05:43:06;;;;;;;9.07;7.20;;;12.90;99.90;;;;;;5443918;26;20291;-82
2024/05/05 05:45:32;;;;;;;11.07;8.00;;;12.80;99.90;;;;;;5446672;26;20254;-82
2024/05/05 05:47:57;;;;;;;11.53;8.47;;;12.90;99.90;;;;;;5445821;26;20240;-80
2024/05/05 05:50:23;;;;;;;11.50;7.90;;;12.90;99.90;;;;;;5445456;26;20557;-80
2024/05/05 05:52:49;;;;;;;8.00;7.20;;;12.90;99.90;;;;;;5446994;26;20594;-80
2024/05/05 05:55:14;;;;;;;9.27;7.07;;;12.90;99.90;;;;;;5430482;26;20319;-81
2024/05/05 05:57:40;;;;;;;9.80;7.97;;;12.80;99.90;;;;;;5448857;26;20344;-79
2024/05/05 06:00:07;;;;;;;10.77;7.87;;;12.80;99.90;;;;;;5445532;26;20304;-80
2024/05/05 06:02:33;;;;;;;9.37;7.53;;;12.80;99.90;;;;;;5442626;26;20245;-80
2024/05/05 06:04:59;;;;;;;7.73;6.90;;;12.80;99.90;;;;;;5445369;26;20237;-82
2024/05/05 06:07:24;;;;;;;9.60;7.43;;;12.90;99.90;;;;;;5443693;26;20292;-80
2024/05/05 06:09:50;;;;;;;9.30;7.87;;;12.90;99.90;;;;;;5409613;26;20257;-80
2024/05/05 06:12:15;;;;;;;12.20;8.27;;;12.90;99.90;;;;;;5442524;26;20248;-80
2024/05/05 06:14:41;;;;;;;8.90;7.53;;;12.80;99.90;;;;;;5408500;26;20243;-79
2024/05/05 06:17:06;;;;;;;9.83;8.03;;;12.80;99.90;;;;;;5442430;26;20288;-80
2024/05/05 06:19:32;;;;;;;8.30;7.10;;;12.80;99.90;;;;;;5430128;26;20244;-80
2024/05/05 06:21:57;;;;;;;9.57;7.13;;;12.90;99.90;;;;;;5410714;26;20285;-80
2024/05/05 06:24:23;;;;;;;9.57;7.37;;;12.90;99.90;;;;;;5418205;26;20291;-82
2024/05/05 06:26:49;;;;;;;8.93;7.30;;;13.00;99.90;;;;;;5377858;26;20582;-79
2024/05/05 06:29:15;;;;;;;9.73;7.50;;;13.10;99.90;;;;;;5443603;26;20561;-81
2024/05/05 06:31:40;;;;;;;12.43;8.13;;;13.10;99.90;;;;;;5444548;26;20232;-82
2024/05/05 06:34:06;;;;;;;9.93;7.10;;;13.10;99.90;;;;;;5430523;26;20242;-80
2024/05/05 06:36:31;;;;;;;8.30;7.10;;;13.10;99.90;;;;;;5443871;26;20238;-80
2024/05/05 06:38:57;;;;;;;8.90;7.03;;;13.10;99.90;;;;;;5443006;26;20395;-80
2024/05/05 06:41:22;;;;;;;9.57;7.30;;;13.20;99.90;;;;;;5445070;26;20229;-80
2024/05/05 06:43:49;;;;;;;8.57;6.80;;;13.10;99.90;;;;;;5439564;26;20233;-79
2024/05/05 06:46:14;;;;;;;12.03;7.43;;;13.10;99.90;;;;;;5443208;26;21061;-82
2024/05/05 06:48:40;;;;;;;9.97;7.33;;;13.10;99.90;;;;;;5442574;26;20236;-81
2024/05/05 06:51:05;;;;;;;8.30;7.10;;;13.10;99.90;;;;;;5444423;26;20233;-81
2024/05/05 06:53:31;;;;;;;9.20;7.10;;;13.10;99.90;;;;;;5440688;26;20258;-80
2024/05/05 06:55:56;;;;;;;9.53;7.30;;;13.10;99.90;;;;;;5412373;26;20305;-80
2024/05/05 06:58:22;;;;;;;10.80;7.50;;;13.10;99.90;;;;;;5443554;26;20242;-79
2024/05/05 07:00:47;;;;;;;8.30;6.83;;;13.20;99.90;;;;;;5408167;26;20242;-80
2024/05/05 07:03:13;;;;;;;8.13;6.87;;;13.20;99.90;;;;;;5442723;26;20588;-80
2024/05/05 07:05:39;;;;;;;8.83;7.03;;;13.30;99.90;;;;;;5407954;26;20814;-80
2024/05/05 07:08:05;;;;;;;10.47;7.70;;;13.30;99.90;;;;;;5441778;26;20262;-82
2024/05/05 07:10:31;;;;;;;9.03;6.80;;;13.30;99.90;;;;;;5407809;26;20716;-81
2024/05/05 07:12:56;;;;;;;9.90;7.57;;;13.30;99.90;;;;;;5443850;26;20255;-81
2024/05/05 07:15:22;;;;;;;12.00;7.43;;;13.30;99.90;;;;;;5411906;26;20266;-82
2024/05/05 07:17:47;;;;;;;8.90;6.50;;;13.30;99.90;;;;;;5444978;26;20707;-79
2024/05/05 07:20:13;;;;;;;13.87;8.03;;;13.30;99.90;;;;;;5448256;26;20243;-81
2024/05/05 07:22:38;;;;;;;9.73;7.37;;;13.30;99.90;;;;;;5448264;26;20235;-80
2024/05/05 07:25:04;;;;;;;8.47;6.57;;;13.30;99.90;;;;;;5445194;26;20284;-81
2024/05/05 07:27:30;;;;;;;8.87;7.03;;;13.30;99.90;;;;;;5447939;26;20238;-81
2024/05/05 07:29:55;;;;;;;9.13;7.63;;;13.30;99.90;;;;;;5420763;26;20247;-80
2024/05/05 07:32:21;;;;;;;7.53;6.17;;;13.40;99.90;;;;;;5447044;26;20584;-80
2024/05/05 07:34:46;;;;;;;8.07;6.67;;;13.40;99.90;;;;;;5448225;26;20268;-80
2024/05/05 07:37:11;;;;;;;8.83;7.00;;;13.40;99.90;;;;;;5448441;26;20237;-79
2024/05/05 07:39:37;;;;;;;11.10;7.60;;;13.40;99.90;;;;;;5448244;26;20660;-82
2024/05/05 07:42:03;;;;;;;10.27;7.37;;;13.50;99.90;;;;;;5446343;26;20731;-80
2024/05/05 07:44:29;;;;;;;11.77;7.20;;;13.50;99.90;;;;;;5426795;26;20326;-80
2024/05/05 07:46:56;;;;;;;8.77;6.60;;;13.50;99.90;;;;;;5411961;26;20280;-81
2024/05/05 07:49:22;;;;;;;10.80;6.77;;;13.50;99.90;;;;;;5443745;26;20242;-80
2024/05/05 07:51:47;;;;;;;9.07;6.73;;;13.40;99.90;;;;;;5446192;26;20306;-81
2024/05/05 07:54:13;;;;;;;8.70;6.30;;;13.50;99.90;;;;;;5424411;26;20242;-81
2024/05/05 07:56:38;;;;;;;8.10;5.63;;;13.50;99.90;;;;;;5446503;26;20734;-79
2024/05/05 07:59:04;;;;;;;9.17;5.57;;;13.50;99.90;;;;;;5447598;26;20722;-79
2024/05/05 08:01:29;;;;;;;10.13;6.23;;;13.50;99.90;;;;;;5445981;26;20246;-80
2024/05/05 08:03:55;;;;;;;9.37;6.43;;;13.60;99.90;;;;;;5411100;26;20240;-81
2024/05/05 08:06:20;;;;;;;8.67;5.33;;;13.70;99.90;;;;;;5444165;26;20713;-79
2024/05/05 08:08:48;;;;;;;7.77;5.73;;;13.80;99.90;;;;;;5438410;26;20307;-80
2024/05/05 08:11:13;;;;;;;7.57;5.23;;;13.80;99.90;;;;;;5410013;26;20251;-82
2024/05/05 08:13:40;;;;;;;8.10;5.10;;;13.90;99.90;;;;;;5409776;26;20322;-80
2024/05/05 08:16:05;;;;;;;8.60;6.00;;;14.00;99.90;;;;;;5445168;26;20247;-81
2024/05/05 08:18:31;;;;;;;8.50;5.97;;;14.10;99.90;;;;;;5447825;26;20749;-80
2024/05/05 08:20:56;;;;;;;7.97;5.93;;;14.20;99.90;;;;;;5445679;26;20831;-80
2024/05/05 08:23:22;;;;;;;7.17;5.83;;;14.30;99.90;;;;;;5445900;26;20647;-82
2024/05/05 08:25:47;;;;;;;9.03;6.33;;;14.50;99.90;;;;;;5443089;26;20709;-81
2024/05/05 08:28:13;;;;;;;8.30;6.50;;;14.70;99.90;;;;;;5447091;26;20237;-81
2024/05/05 08:30:39;;;;;;;9.70;6.20;;;14.80;99.90;;;;;;5445871;26;20256;-81
2024/05/05 08:33:04;;;;;;;8.90;6.63;;;14.80;99.90;;;;;;5410920;26;20249;-81
2024/05/05 08:35:30;;;;;;;8.70;6.73;;;14.90;99.90;;;;;;5446379;26;20228;-81
2024/05/05 08:37:55;;;;;;;9.17;6.90;;;15.00;99.90;;;;;;5448246;26;20275;-81
2024/05/05 08:40:21;;;;;;;8.07;6.70;;;15.10;99.90;;;;;;5445554;26;20263;-80
2024/05/05 08:42:49;;;;;;;8.33;6.67;;;15.00;99.90;;;;;;5449277;26;20969;-80
2024/05/05 08:45:17;;;;;;;11.83;6.93;;;15.00;99.90;;;;;;5445023;26;20232;-81
2024/05/05 08:47:43;;;;;;;9.27;7.20;;;15.00;99.90;;;;;;5446073;26;20235;-81
2024/05/05 08:50:09;;;;;;;9.67;7.20;;;15.00;99.90;;;;;;5440761;26;20832;-79
2024/05/05 08:52:37;;;;;;;10.67;6.97;;;15.10;99.90;;;;;;5412024;26;20233;-80
2024/05/05 08:55:04;;;;;;;8.30;6.30;;;15.00;99.90;;;;;;5443608;26;20449;-81
2024/05/05 08:57:37;;;;;;;9.37;6.83;;;15.00;99.90;;;;;;5412504;26;20283;-80
2024/05/05 09:00:03;;;;;;;9.23;7.33;;;15.00;99.90;;;;;;5440924;26;20237;-80
2024/05/05 09:02:28;;;;;;;9.30;7.33;;;15.00;99.90;;;;;;5445102;26;20244;-80
2024/05/05 09:04:54;;;;;;;8.37;7.00;;;14.90;99.90;;;;;;5445368;26;20273;-80
2024/05/05 09:07:20;;;;;;;9.57;6.90;;;14.80;99.90;;;;;;5447240;26;20244;-82
2024/05/05 09:09:49;;;;;;;9.43;6.90;;;14.70;99.90;;;;;;5445129;26;20240;-82
2024/05/05 09:12:15;;;;;;;10.87;6.90;;;14.80;99.90;;;;;;5447378;26;20244;-82
2024/05/05 09:14:43;;;;;;;8.87;7.23;;;14.90;99.90;;;;;;5448327;26;20290;-81
2024/05/05 09:17:11;;;;;;;9.53;7.30;;;14.90;99.90;;;;;;5447222;26;20256;-81
2024/05/05 09:19:44;;;;;;;9.57;7.47;;;14.90;99.90;;;;;;5449799;26;20236;-80
2024/05/05 09:22:17;;;;;;;10.77;7.47;;;15.00;99.90;;;;;;5409470;26;20260;-81
2024/05/05 09:24:48;;;;;;;10.53;7.67;;;15.00;99.90;;;;;;5419141;26;20723;-81
2024/05/05 09:27:14;;;;;;;10.37;7.43;;;15.00;99.90;;;;;;5410372;26;20867;-80
2024/05/05 09:29:47;;;;;;;10.70;8.17;;;15.10;99.90;;;;;;5409260;26;20655;-82
2024/05/05 09:32:13;;;;;;;10.90;8.17;;;15.10;99.90;;;;;;5410331;26;20229;-82
2024/05/05 09:34:41;;;;;;;9.73;7.27;;;15.20;99.90;;;;;;5438561;26;20249;-80
2024/05/05 09:37:09;;;;;;;11.40;7.47;;;15.30;99.90;;;;;;5446396;26;20237;-80
2024/05/05 09:39:34;;;;;;;11.50;6.67;;;15.30;99.90;;;;;;5449452;26;20340;-80
2024/05/05 09:42:00;;;;;;;10.27;7.17;;;15.30;99.90;;;;;;5416885;26;20680;-81
2024/05/05 09:44:26;;;;;;;8.80;6.80;;;15.30;99.90;;;;;;5424160;26;20714;-82
2024/05/05 09:46:54;;;;;;;8.97;6.80;;;15.40;99.90;;;;;;5408468;26;20243;-82
2024/05/05 09:49:20;;;;;;;8.77;6.60;;;15.30;99.90;;;;;;5443969;26;20249;-80
2024/05/05 09:52:10;;;;;;;8.77;7.20;;;15.40;99.90;;;;;;5409829;26;20279;-81
2024/05/05 09:54:50;;;;;;;8.27;6.77;;;15.40;99.90;;;;;;5406636;26;20237;-80
2024/05/05 09:57:30;;;;;;;8.03;5.93;;;15.40;99.90;;;;;;5438572;26;20274;-81
2024/05/05 09:59:56;;;;;;;6.73;5.80;;;15.50;99.90;;;;;;5408850;26;20290;-81
2024/05/05 10:02:26;;;;;;;9.33;6.60;;;15.60;99.90;;;;;;5445279;26;20236;-80
2024/05/05 10:04:53;;;;;;;15.23;6.10;;;15.60;99.90;;;;;;5446101;26;20242;-80
2024/05/05 10:07:25;;;;;;;9.07;6.30;;;15.80;99.90;;;;;;5446064;26;20784;-82
2024/05/05 10:10:01;;;;;;;6.70;5.50;;;15.90;99.90;;;;;;5445677;26;20299;-81
2024/05/05 10:12:27;;;;;;;8.17;5.77;;;16.10;99.90;;;;;;5407996;26;20302;-80
2024/05/05 10:14:52;;;;;;;6.37;5.30;;;16.10;99.90;;;;;;5408323;26;20249;-79
2024/05/05 10:17:28;;;;;;;9.20;5.77;;;16.10;99.90;;;;;;5445393;26;20806;-80
2024/05/05 10:19:57;;;;;;;7.40;5.30;;;16.10;99.90;;;;;;5435515;26;20232;-81
2024/05/05 10:22:30;;;;;;;10.17;5.60;;;16.20;99.90;;;;;;5410383;26;20622;-80
2024/05/05 10:24:56;;;;;;;6.07;5.27;;;16.30;99.90;;;;;;5426848;26;20243;-80
2024/05/05 10:27:21;;;;;;;7.70;5.90;;;16.40;99.90;;;;;;5444368;26;20344;-80
2024/05/05 10:29:54;;;;;;;7.00;5.60;;;16.50;99.90;;;;;;5443821;26;20288;-80
2024/05/05 10:32:19;;;;;;;6.43;4.90;;;16.50;99.90;;;;;;5408038;26;20769;-80
2024/05/05 10:34:51;;;;;;;7.20;5.07;;;16.50;99.90;;;;;;5407848;26;20249;-80
2024/05/05 10:37:20;;;;;;;7.47;4.77;;;16.50;99.90;;;;;;5407672;26;20236;-80
2024/05/05 10:39:47;;;;;;;8.07;4.90;;;16.50;99.90;;;;;;5446019;26;20239;-80
2024/05/05 10:42:13;;;;;;;7.13;5.40;;;16.40;99.90;;;;;;5444927;26;20234;-81
2024/05/05 10:44:38;;;;;;;6.33;4.93;;;16.40;99.90;;;;;;5441588;26;20715;-80
2024/05/05 10:47:05;;;;;;;5.50;4.80;;;16.40;99.90;;;;;;5443553;26;20277;-81
2024/05/05 10:49:31;;;;;;;7.37;5.20;;;16.40;99.90;;;;;;5447985;26;20303;-81
2024/05/05 10:52:01;;;;;;;8.00;4.90;;;16.50;99.90;;;;;;5449303;26;20241;-80
2024/05/05 10:54:27;;;;;;;6.20;4.73;;;16.50;99.90;;;;;;5442535;26;20246;-81
2024/05/05 10:56:54;;;;;;;5.10;4.27;;;16.40;99.90;;;;;;5446549;26;20262;-80
2024/05/05 10:59:20;;;;;;;6.43;4.67;;;16.40;99.90;;;;;;5411391;26;20259;-79
2024/05/05 11:01:49;;;;;;;6.17;4.27;;;16.40;99.90;;;;;;5446063;26;20307;-81
2024/05/05 11:04:25;;;;;;;7.77;4.00;;;16.40;99.90;;;;;;5411506;26;20286;-81
2024/05/05 11:06:54;;;;;;;7.13;4.23;;;16.40;99.90;;;;;;5413241;26;20227;-81
2024/05/05 11:09:25;;;;;;;4.03;3.60;;;16.30;99.90;;;;;;5411403;26;20877;-81
2024/05/05 11:12:02;;;;;;;5.47;3.67;;;16.30;99.90;;;;;;5447618;26;21043;-81
2024/05/05 11:14:28;;;;;;;6.10;4.43;;;16.30;99.90;;;;;;5412643;26;20294;-80
2024/05/05 11:16:55;;;;;;;4.57;3.70;;;16.30;99.90;;;;;;5447643;26;20237;-82
2024/05/05 11:19:21;;;;;;;5.47;3.67;;;16.30;99.90;;;;;;5447000;26;20692;-83
2024/05/05 11:21:47;;;;;;;4.00;3.40;;;16.30;99.90;;;;;;5411997;26;20349;-82
2024/05/05 11:24:13;;;;;;;4.37;3.20;;;16.40;99.90;;;;;;5442418;26;20259;-82
2024/05/05 11:26:39;;;;;;;5.07;3.80;;;16.40;99.90;;;;;;5412171;26;20803;-81
2024/05/05 11:29:04;;;;;;;5.43;3.73;;;16.40;99.90;;;;;;5410751;26;20256;-81
2024/05/05 11:31:30;;;;;;;5.27;3.90;;;16.50;99.90;;;;;;5412555;26;20632;-81
2024/05/05 11:33:56;;;;;;;4.80;3.60;;;16.60;99.90;;;;;;5432647;26;20249;-83
2024/05/05 11:36:23;;;;;;;6.97;4.00;;;16.60;99.90;;;;;;5410559;26;20240;-81
2024/05/05 11:38:49;;;;;;;7.00;3.83;;;16.60;99.90;;;;;;5447544;26;20919;-80
2024/05/05 11:41:14;;;;;;;4.50;3.67;;;16.60;99.90;;;;;;5411470;26;20259;-80
2024/05/05 11:43:47;;;;;;;4.67;3.90;;;16.60;99.90;;;;;;5443057;26;20250;-81
2024/05/05 11:46:14;;;;;;;7.37;4.70;;;16.60;99.90;;;;;;5447753;26;20227;-79
2024/05/05 11:49:09;;;;;;;5.07;3.70;;;16.60;99.90;;;;;;5446664;26;20822;-82
2024/05/05 11:51:38;;;;;;;6.27;3.60;;;16.60;99.90;;;;;;5409969;26;20296;-81
2024/05/05 11:54:13;;;;;;;4.90;3.97;;;16.60;99.90;;;;;;5443924;26;20239;-81
2024/05/05 11:56:40;;;;;;;6.30;4.17;;;16.60;99.90;;;;;;5410798;26;20277;-81
2024/05/05 11:59:06;;;;;;;4.30;3.60;;;16.50;99.90;;;;;;5439658;26;20339;-81
2024/05/05 12:01:32;;;;;;;4.80;3.23;;;16.50;99.90;;;;;;5444198;26;20256;-82
2024/05/05 12:03:59;;;;;;;3.60;3.03;;;16.50;99.90;;;;;;5423664;26;20298;-81
2024/05/05 12:06:27;;;;;;;5.13;3.57;;;16.50;99.90;;;;;;5446107;26;20319;-82
2024/05/05 12:08:54;;;;;;;4.47;3.33;;;16.60;99.90;;;;;;5443970;26;20317;-79
2024/05/05 12:11:44;;;;;;;5.30;2.80;;;16.60;99.90;;;;;;5451462;26;20303;-80
2024/05/05 12:14:14;;;;;;;4.20;3.33;;;16.50;99.90;;;;;;5413309;26;20236;-79
2024/05/05 12:16:41;;;;;;;3.30;3.00;;;16.50;99.90;;;;;;5411977;26;20354;-81
2024/05/05 12:19:08;;;;;;;4.23;3.20;;;16.60;99.90;;;;;;5444930;26;20251;-81
2024/05/05 12:21:35;;;;;;;4.27;3.10;;;16.60;99.90;;;;;;5410316;26;20262;-81
2024/05/05 12:24:01;;;;;;;4.80;3.20;;;16.70;99.90;;;;;;5439997;26;20316;-79
2024/05/05 12:26:30;;;;;;;3.73;3.33;;;16.70;99.90;;;;;;5448971;26;20339;-80
2024/05/05 12:29:21;;;;;;;4.13;2.70;;;16.80;99.70;;;;;;5456896;26;20238;-79
2024/05/05 12:31:52;;;;;;;3.57;2.90;;;16.80;99.90;;;;;;5450210;26;20285;-79
2024/05/05 12:34:19;;;;;;;4.97;3.67;;;16.70;99.90;;;;;;5447551;26;20247;-80
2024/05/05 12:36:56;;;;;;;5.63;3.50;;;16.70;99.90;;;;;;5409878;26;20256;-79